TimeCDT,TemperatureF,Dew PointF,Humidity,Sea Level PressureIn,VisibilityMPH,Wind Direction,Wind SpeedMPH,Gust SpeedMPH,PrecipitationIn,Events,Conditions,WindDirDegrees,DateUTC
12:15 AM,62.6,60.8,94,30.14,2.5,Calm,Calm,-,N/A,,Clear,0,2013-10-02 05:15:00
12:35 AM,60.8,57.2,88,30.14,9.0,Calm,Calm,-,N/A,,Clear,0,2013-10-02 05:35:00
12:55 AM,60.8,59.0,94,30.14,10.0,Calm,Calm,-,N/A,,Mostly Cloudy,0,2013-10-02 05:55:00
1:15 AM,62.6,60.8,94,30.14,10.0,Calm,Calm,-,N/A,,Overcast,0,2013-10-02 06:15:00
1:35 AM,62.6,60.8,94,30.14,10.0,Calm,Calm,-,N/A,,Mostly Cloudy,0,2013-10-02 06:35:00
1:55 AM,62.6,60.8,94,30.14,9.0,Calm,Calm,-,N/A,,Clear,0,2013-10-02 06:55:00
2:15 AM,62.6,60.8,94,30.13,10.0,Calm,Calm,-,N/A,,Clear,0,2013-10-02 07:15:00
2:35 AM,62.6,60.8,94,30.13,10.0,Calm,Calm,-,N/A,,Mostly Cloudy,0,2013-10-02 07:35:00
2:55 AM,62.6,60.8,94,30.12,10.0,Calm,Calm,-,N/A,,Overcast,0,2013-10-02 07:55:00
3:15 AM,62.6,60.8,94,30.12,10.0,Calm,Calm,-,N/A,,Overcast,0,2013-10-02 08:15:00
3:35 AM,62.6,60.8,94,30.13,10.0,Calm,Calm,-,N/A,,Overcast,0,2013-10-02 08:35:00
3:55 AM,64.4,60.8,88,30.13,10.0,Calm,Calm,-,N/A,,Overcast,0,2013-10-02 08:55:00
4:15 AM,64.4,60.8,88,30.13,10.0,Calm,Calm,-,N/A,,Overcast,0,2013-10-02 09:15:00
4:35 AM,64.4,62.6,94,30.13,10.0,Calm,Calm,-,N/A,,Mostly Cloudy,0,2013-10-02 09:35:00
4:55 AM,64.4,60.8,88,30.14,10.0,Calm,Calm,-,N/A,,Mostly Cloudy,0,2013-10-02 09:55:00
5:15 AM,62.6,60.8,94,30.14,10.0,Calm,Calm,-,N/A,,Overcast,0,2013-10-02 10:15:00
5:35 AM,62.6,60.8,94,30.15,10.0,Calm,Calm,-,N/A,,Overcast,0,2013-10-02 10:35:00
5:55 AM,64.4,60.8,88,30.15,10.0,Calm,Calm,-,N/A,,Mostly Cloudy,0,2013-10-02 10:55:00
6:15 AM,62.6,60.8,94,30.16,10.0,Calm,Calm,-,N/A,,Mostly Cloudy,0,2013-10-02 11:15:00
6:35 AM,62.6,60.8,94,30.17,10.0,Calm,Calm,-,N/A,,Scattered Clouds,0,2013-10-02 11:35:00
6:55 AM,62.6,60.8,94,30.17,10.0,Calm,Calm,-,N/A,,Mostly Cloudy,0,2013-10-02 11:55:00
7:15 AM,64.4,60.8,88,30.18,10.0,Calm,Calm,-,N/A,,Overcast,0,2013-10-02 12:15:00
7:35 AM,66.2,62.6,88,30.18,10.0,Calm,Calm,-,N/A,,Overcast,0,2013-10-02 12:35:00
7:55 AM,66.2,62.6,88,30.18,10.0,Calm,Calm,-,N/A,,Overcast,0,2013-10-02 12:55:00
8:15 AM,66.2,64.4,94,30.18,10.0,Calm,Calm,-,N/A,,Overcast,0,2013-10-02 13:15:00
8:35 AM,69.8,64.4,83,30.19,10.0,Calm,Calm,-,N/A,,Partly Cloudy,0,2013-10-02 13:35:00
8:55 AM,71.6,64.4,78,30.19,10.0,South,4.6,-,N/A,,Partly Cloudy,170,2013-10-02 13:55:00
9:15 AM,71.6,64.4,78,30.19,10.0,SE,3.5,-,N/A,,Mostly Cloudy,140,2013-10-02 14:15:00
9:35 AM,71.6,64.4,78,30.19,10.0,South,3.5,-,N/A,,Mostly Cloudy,170,2013-10-02 14:35:00
9:55 AM,73.4,64.4,73,30.19,10.0,SW,4.6,-,N/A,,Mostly Cloudy,220,2013-10-02 14:55:00
10:15 AM,75.2,64.4,69,30.19,10.0,SSW,4.6,-,N/A,,Mostly Cloudy,210,2013-10-02 15:15:00
10:35 AM,75.2,64.4,69,30.18,10.0,WSW,4.6,-,N/A,,Overcast,240,2013-10-02 15:35:00
10:55 AM,77.0,64.4,65,30.18,10.0,WSW,3.5,-,N/A,,Mostly Cloudy,240,2013-10-02 15:55:00
11:15 AM,78.8,64.4,61,30.18,10.0,SW,5.8,-,N/A,,Scattered Clouds,230,2013-10-02 16:15:00
11:35 AM,78.8,64.4,61,30.17,10.0,SW,5.8,-,N/A,,Partly Cloudy,220,2013-10-02 16:35:00
11:55 AM,80.6,64.4,58,30.16,10.0,SSW,5.8,-,N/A,,Clear,210,2013-10-02 16:55:00
12:15 PM,80.6,64.4,58,30.16,5.0,West,5.8,-,N/A,,Clear,260,2013-10-02 17:15:00
12:35 PM,82.4,64.4,54,30.15,10.0,SW,5.8,-,N/A,,Partly Cloudy,220,2013-10-02 17:35:00
12:55 PM,82.4,62.6,51,30.14,10.0,West,3.5,-,N/A,,Mostly Cloudy,260,2013-10-02 17:55:00
1:15 PM,80.6,62.6,54,30.14,10.0,Calm,Calm,-,N/A,,Mostly Cloudy,0,2013-10-02 18:15:00
1:35 PM,80.6,60.8,51,30.13,10.0,Calm,Calm,-,N/A,,Overcast,0,2013-10-02 18:35:00
1:55 PM,80.6,62.6,54,30.13,10.0,West,3.5,-,N/A,,Mostly Cloudy,260,2013-10-02 18:55:00
2:15 PM,80.6,62.6,54,30.12,10.0,Calm,Calm,-,N/A,,Mostly Cloudy,0,2013-10-02 19:15:00
2:35 PM,78.8,62.6,57,30.12,10.0,South,3.5,-,N/A,,Mostly Cloudy,180,2013-10-02 19:35:00
2:55 PM,78.8,62.6,57,30.12,10.0,Calm,Calm,-,N/A,,Mostly Cloudy,0,2013-10-02 19:55:00
3:15 PM,78.8,64.4,61,30.12,10.0,South,3.5,-,N/A,,Overcast,180,2013-10-02 20:15:00
3:35 PM,78.8,64.4,61,30.11,10.0,South,3.5,-,N/A,,Overcast,180,2013-10-02 20:35:00
3:55 PM,78.8,64.4,61,30.11,10.0,Calm,Calm,-,N/A,,Mostly Cloudy,0,2013-10-02 20:55:00
4:15 PM,78.8,62.6,57,30.10,10.0,Calm,Calm,-,N/A,,Scattered Clouds,0,2013-10-02 21:15:00
4:35 PM,78.8,64.4,61,30.10,10.0,Calm,Calm,-,N/A,,Scattered Clouds,0,2013-10-02 21:35:00
4:55 PM,78.8,64.4,61,30.10,10.0,SE,3.5,-,N/A,,Mostly Cloudy,140,2013-10-02 21:55:00
5:15 PM,78.8,64.4,61,30.10,10.0,SE,3.5,-,N/A,,Mostly Cloudy,130,2013-10-02 22:15:00
5:35 PM,77.0,64.4,65,30.10,10.0,Calm,Calm,-,N/A,,Scattered Clouds,0,2013-10-02 22:35:00
5:55 PM,77.0,64.4,65,30.10,10.0,SE,3.5,-,N/A,,Partly Cloudy,130,2013-10-02 22:55:00
6:15 PM,77.0,64.4,65,30.11,10.0,Calm,Calm,-,N/A,,Mostly Cloudy,0,2013-10-02 23:15:00
6:35 PM,75.2,66.2,73,30.11,10.0,Calm,Calm,-,N/A,,Overcast,0,2013-10-02 23:35:00
6:55 PM,73.4,66.2,78,30.11,10.0,Calm,Calm,-,N/A,,Overcast,0,2013-10-02 23:55:00
7:15 PM,71.6,66.2,83,30.12,10.0,Calm,Calm,-,N/A,,Partly Cloudy,0,2013-10-03 00:15:00
7:35 PM,71.6,66.2,83,30.12,10.0,Calm,Calm,-,N/A,,Clear,0,2013-10-03 00:35:00
7:55 PM,71.6,66.2,83,30.12,10.0,Calm,Calm,-,N/A,,Clear,0,2013-10-03 00:55:00
8:15 PM,71.6,66.2,83,30.12,10.0,Calm,Calm,-,N/A,,Clear,0,2013-10-03 01:15:00
8:35 PM,71.6,66.2,83,30.13,10.0,Calm,Calm,-,N/A,,Clear,0,2013-10-03 01:35:00
8:55 PM,71.6,66.2,83,30.13,10.0,Calm,Calm,-,N/A,,Mostly Cloudy,0,2013-10-03 01:55:00
9:15 PM,71.6,66.2,83,30.13,10.0,Calm,Calm,-,N/A,,Scattered Clouds,0,2013-10-03 02:15:00
9:35 PM,71.6,66.2,83,30.13,10.0,Calm,Calm,-,N/A,,Partly Cloudy,0,2013-10-03 02:35:00
9:55 PM,69.8,66.2,88,30.13,10.0,Calm,Calm,-,N/A,,Scattered Clouds,0,2013-10-03 02:55:00
10:15 PM,69.8,66.2,88,30.13,10.0,Calm,Calm,-,N/A,,Scattered Clouds,0,2013-10-03 03:15:00
10:35 PM,69.8,66.2,88,30.13,10.0,Calm,Calm,-,N/A,,Partly Cloudy,0,2013-10-03 03:35:00
10:55 PM,69.8,66.2,88,30.13,10.0,WSW,4.6,-,N/A,,Scattered Clouds,240,2013-10-03 03:55:00
11:15 PM,69.8,66.2,88,30.14,10.0,Calm,Calm,-,N/A,,Overcast,0,2013-10-03 04:15:00
11:35 PM,69.8,66.2,88,30.13,10.0,Calm,Calm,-,N/A,,Overcast,0,2013-10-03 04:35:00
11:55 PM,69.8,64.4,83,30.13,10.0,Calm,Calm,-,N/A,,Mostly Cloudy,0,2013-10-03 04:55:00